Time;durP1;ratioP1;P1;durP2;ratioP2;P2;SDS_P1;SDS_P2;PMS_P1;PMS_P2;Temp;Humidity;BMP_temperature;BMP_pressure;BME280_temperature;BME280_humidity;BME280_pressure;Samples;Min_cycle;Max_cycle;Signal;HPM_P1;HPM_P2
2022/10/09 00:00:09;;;;;;;;;6.75;6.75;26.90;99.90;;;;;;5017226;28;9176;-59
2022/10/09 00:02:41;;;;;;;;;6.25;6.25;26.80;99.90;;;;;;5020588;28;9577;-59
2022/10/09 00:05:13;;;;;;;;;7.00;7.00;26.80;99.90;;;;;;5021030;28;8855;-60
2022/10/09 00:07:45;;;;;;;;;7.00;7.00;26.70;99.90;;;;;;5016532;28;8885;-60
2022/10/09 00:10:16;;;;;;;;;6.00;6.00;26.70;99.90;;;;;;5035328;28;8843;-60
2022/10/09 00:12:47;;;;;;;;;6.50;6.50;26.60;99.90;;;;;;5019747;28;8921;-60
2022/10/09 00:15:18;;;;;;;;;8.25;8.25;26.60;99.90;;;;;;5049485;28;8839;-59
2022/10/09 00:17:49;;;;;;;;;8.25;6.75;26.60;99.90;;;;;;5020169;28;8877;-59
2022/10/09 00:20:24;;;;;;;;;8.00;8.00;26.50;99.90;;;;;;5021317;28;9731;-59
2022/10/09 00:22:55;;;;;;;;;7.25;7.25;26.50;99.90;;;;;;5002136;28;8877;-59
2022/10/09 00:25:27;;;;;;;;;9.25;9.25;26.40;99.90;;;;;;5050543;28;8842;-60
2022/10/09 00:27:59;;;;;;;;;6.75;6.75;26.30;99.90;;;;;;5020694;28;8855;-60
2022/10/09 00:30:30;;;;;;;;;5.25;5.25;26.20;99.90;;;;;;5014624;28;8865;-60
2022/10/09 00:33:01;;;;;;;;;7.00;7.00;26.10;99.90;;;;;;5047373;28;8858;-60
2022/10/09 00:35:39;;;;;;;;;6.25;6.25;26.10;99.90;;;;;;5039300;28;8840;-60
2022/10/09 00:38:12;;;;;;;;;8.25;8.25;26.00;99.90;;;;;;5029524;28;8849;-59
2022/10/09 00:40:45;;;;;;;;;7.00;7.00;26.00;99.90;;;;;;5018822;28;8850;-61
2022/10/09 00:43:20;;;;;;;;;5.25;5.25;26.00;99.90;;;;;;5026118;28;9001;-60
2022/10/09 00:45:58;;;;;;;;;8.00;8.00;25.90;99.90;;;;;;5022336;28;8884;-61
2022/10/09 00:48:29;;;;;;;;;7.00;7.00;25.90;99.90;;;;;;5017924;28;9593;-60
2022/10/09 00:51:04;;;;;;;;;8.00;8.00;25.80;99.90;;;;;;5050653;28;8999;-60
2022/10/09 00:53:37;;;;;;;;;6.00;6.00;25.70;99.90;;;;;;5015649;28;8850;-60
2022/10/09 00:56:07;;;;;;;;;6.50;6.50;25.70;99.90;;;;;;5021333;28;8867;-59
2022/10/09 00:58:40;;;;;;;;;7.75;7.75;25.60;99.90;;;;;;5023842;28;8867;-59
2022/10/09 01:01:10;;;;;;;;;6.00;6.00;25.60;99.90;;;;;;5018353;28;8851;-60
2022/10/09 01:03:42;;;;;;;;;7.75;7.75;25.50;99.90;;;;;;5017358;28;8827;-59
2022/10/09 01:06:32;;;;;;;;;8.50;8.50;25.50;99.90;;;;;;5039117;28;8874;-59
2022/10/09 01:09:14;;;;;;;;;8.00;8.00;25.40;99.90;;;;;;5020951;28;8835;-60
2022/10/09 01:12:03;;;;;;;;;6.00;6.00;25.30;99.90;;;;;;5016052;28;8831;-59
2022/10/09 01:14:57;;;;;;;;;7.50;7.50;25.20;99.90;;;;;;5036256;28;8846;-59
2022/10/09 01:17:41;;;;;;;;;7.00;7.00;25.20;99.90;;;;;;5039874;28;8847;-59
2022/10/09 01:20:41;;;;;;;;;8.25;8.25;25.10;99.90;;;;;;5018932;28;8850;-59
2022/10/09 01:23:39;;;;;;;;;7.00;7.00;25.00;99.90;;;;;;5010964;28;8863;-59
2022/10/09 01:26:51;;;;;;;;;7.00;7.00;24.90;99.90;;;;;;5018197;28;8843;-59
2022/10/09 01:29:26;;;;;;;;;6.75;6.75;24.90;99.90;;;;;;5018595;28;8994;-60
2022/10/09 01:32:00;;;;;;;;;4.25;4.25;24.80;99.90;;;;;;5016021;28;8847;-60
2022/10/09 01:34:32;;;;;;;;;8.00;8.00;24.80;99.90;;;;;;5016201;28;8867;-59
2022/10/09 01:37:05;;;;;;;;;7.25;7.25;24.80;99.90;;;;;;5015993;28;8851;-60
2022/10/09 01:39:40;;;;;;;;;8.00;7.00;24.90;99.90;;;;;;5020467;28;8843;-59
2022/10/09 01:42:15;;;;;;;;;7.75;7.00;24.90;99.90;;;;;;5016333;28;8844;-59
2022/10/09 01:44:47;;;;;;;;;7.50;7.50;24.90;99.90;;;;;;5016927;28;8874;-59
2022/10/09 01:47:19;;;;;;;;;6.25;6.25;24.80;99.90;;;;;;5018330;28;8870;-61
2022/10/09 01:49:58;;;;;;;;;6.25;6.25;24.70;99.90;;;;;;5020967;28;10442;-61
2022/10/09 01:53:07;;;;;;;;;7.00;7.00;24.70;99.90;;;;;;5018913;28;8881;-59
2022/10/09 01:55:49;;;;;;;;;7.50;7.50;24.60;99.90;;;;;;5032005;28;8968;-60
2022/10/09 01:58:52;;;;;;;;;7.25;7.25;24.50;99.90;;;;;;5041965;28;8842;-60
2022/10/09 02:01:34;;;;;;;;;6.00;6.00;24.50;99.90;;;;;;5017313;28;8915;-60
2022/10/09 02:04:10;;;;;;;;;8.50;7.00;24.60;99.90;;;;;;5018960;28;8835;-60
2022/10/09 02:06:45;;;;;;;;;7.75;7.75;24.70;99.90;;;;;;5017683;28;8941;-60
2022/10/09 02:09:16;;;;;;;;;7.00;7.00;24.50;99.90;;;;;;5020825;28;8827;-59
2022/10/09 02:11:54;;;;;;;;;6.25;6.25;24.20;99.90;;;;;;5018939;28;8819;-60
2022/10/09 02:14:28;;;;;;;;;5.00;5.00;24.10;99.90;;;;;;5021718;28;8863;-59
2022/10/09 02:17:19;;;;;;;;;6.75;6.75;24.00;99.90;;;;;;5023071;28;8993;-59
2022/10/09 02:19:59;;;;;;;;;6.50;6.50;23.90;99.90;;;;;;5015149;28;8876;-60
2022/10/09 02:22:32;;;;;;;;;3.00;3.00;23.90;99.90;;;;;;5018415;28;9369;-60
2022/10/09 02:25:07;;;;;;;;;6.00;6.00;23.70;99.90;;;;;;5012677;28;8874;-60
2022/10/09 02:27:38;;;;;;;;;7.00;7.00;23.70;99.90;;;;;;5027679;28;8859;-60
2022/10/09 02:30:11;;;;;;;;;6.00;6.00;23.60;99.90;;;;;;5016637;28;9850;-60
2022/10/09 02:32:46;;;;;;;;;7.00;7.00;23.60;99.90;;;;;;5018864;28;8875;-59
2022/10/09 02:35:18;;;;;;;;;6.25;5.50;23.60;99.90;;;;;;5019513;28;9617;-59
2022/10/09 02:37:50;;;;;;;;;6.75;6.75;23.60;99.90;;;;;;5016701;28;9037;-61
2022/10/09 02:40:22;;;;;;;;;7.25;7.25;23.50;99.90;;;;;;5028193;28;9300;-60
2022/10/09 02:42:54;;;;;;;;;7.00;7.00;23.50;99.90;;;;;;5024175;28;8843;-59
2022/10/09 02:45:26;;;;;;;;;8.50;7.00;23.60;99.90;;;;;;5017127;28;8859;-59
2022/10/09 02:47:56;;;;;;;;;7.25;7.25;23.80;99.90;;;;;;5020873;28;8843;-59
2022/10/09 02:50:35;;;;;;;;;7.00;7.00;23.70;99.90;;;;;;5023061;28;8888;-60
2022/10/09 02:53:04;;;;;;;;;6.00;6.00;23.60;99.90;;;;;;5019958;28;8851;-60
2022/10/09 02:55:36;;;;;;;;;8.75;8.75;23.50;99.90;;;;;;5016014;28;8854;-60
2022/10/09 02:58:08;;;;;;;;;6.00;6.00;23.60;99.90;;;;;;5022144;28;8852;-59
2022/10/09 03:00:39;;;;;;;;;9.00;9.00;23.70;99.90;;;;;;5034666;28;8863;-60
2022/10/09 03:03:09;;;;;;;;;7.00;7.00;23.70;99.90;;;;;;5025559;28;8831;-60
2022/10/09 03:05:39;;;;;;;;;5.00;5.00;23.80;99.90;;;;;;5039109;28;8848;-60
2022/10/09 03:08:09;;;;;;;;;7.75;6.75;23.80;99.90;;;;;;5024177;28;8843;-62
2022/10/09 03:10:42;;;;;;;;;8.00;8.00;23.90;99.90;;;;;;5017597;28;8870;-59
2022/10/09 03:13:14;;;;;;;;;9.25;8.25;23.90;99.90;;;;;;5054207;28;8870;-60
2022/10/09 03:15:44;;;;;;;;;8.25;8.25;24.00;99.90;;;;;;5019284;28;8835;-59
2022/10/09 03:18:18;;;;;;;;;12.75;11.50;24.10;99.90;;;;;;5018625;28;8909;-59
2022/10/09 03:20:49;;;;;;;;;11.50;11.00;24.00;99.90;;;;;;5015119;28;8863;-60
2022/10/09 03:23:24;;;;;;;;;10.00;10.00;23.90;99.90;;;;;;5019971;28;8881;-60
2022/10/09 03:26:03;;;;;;;;;13.00;13.00;23.90;99.90;;;;;;5032603;28;8857;-60
2022/10/09 03:28:39;;;;;;;;;14.75;14.75;24.00;99.90;;;;;;5051217;28;8875;-60
2022/10/09 03:31:10;;;;;;;;;11.50;11.50;24.00;99.90;;;;;;5020404;28;8842;-60
2022/10/09 03:34:04;;;;;;;;;14.50;13.00;24.00;99.90;;;;;;5017917;28;9940;-60
2022/10/09 03:36:35;;;;;;;;;17.75;17.75;23.90;99.90;;;;;;5034630;28;8850;-60
2022/10/09 03:39:13;;;;;;;;;16.50;15.50;24.00;99.90;;;;;;5048574;28;8863;-60
2022/10/09 03:41:44;;;;;;;;;15.75;15.75;24.00;99.90;;;;;;5032006;28;8859;-60
2022/10/09 03:44:14;;;;;;;;;13.75;13.75;24.00;99.90;;;;;;5023871;28;8838;-59
2022/10/09 03:46:45;;;;;;;;;16.75;16.75;24.00;99.90;;;;;;5037507;28;8845;-59
2022/10/09 03:49:17;;;;;;;;;14.00;14.00;24.00;99.90;;;;;;5048815;28;8874;-59
2022/10/09 03:51:52;;;;;;;;;15.00;15.00;24.00;99.90;;;;;;5021812;28;8839;-60
2022/10/09 03:54:26;;;;;;;;;18.75;17.00;24.00;99.90;;;;;;5034623;28;8863;-60
2022/10/09 03:56:56;;;;;;;;;15.50;15.50;23.80;99.90;;;;;;5019521;28;8896;-60
2022/10/09 03:59:31;;;;;;;;;14.75;14.75;24.00;99.90;;;;;;5014095;28;8867;-59
2022/10/09 04:02:01;;;;;;;;;15.00;15.00;23.90;99.90;;;;;;5019552;28;8873;-60
2022/10/09 04:04:32;;;;;;;;;14.75;14.75;23.90;99.90;;;;;;5024532;28;8902;-61
2022/10/09 04:07:06;;;;;;;;;12.67;12.67;23.90;99.90;;;;;;5021912;28;9552;-60
2022/10/09 04:09:36;;;;;;;;;19.25;19.25;23.90;99.90;;;;;;5022035;28;8836;-67
2022/10/09 04:12:06;;;;;;;;;19.50;18.00;23.80;99.90;;;;;;5021154;28;8840;-60
2022/10/09 04:14:38;;;;;;;;;17.75;17.75;23.80;99.90;;;;;;5022832;28;8848;-61
2022/10/09 04:17:09;;;;;;;;;15.75;15.75;23.80;99.90;;;;;;5023792;28;8850;-61
2022/10/09 04:19:41;;;;;;;;;19.50;19.50;23.80;99.90;;;;;;5021074;28;8870;-62
2022/10/09 04:22:15;;;;;;;;;20.00;18.75;23.70;99.90;;;;;;5021682;28;8989;-60
2022/10/09 04:24:45;;;;;;;;;18.00;16.50;23.70;99.90;;;;;;5019021;28;8858;-60
2022/10/09 04:27:16;;;;;;;;;14.00;14.00;23.70;99.90;;;;;;5015469;28;8859;-60
2022/10/09 04:29:47;;;;;;;;;17.75;17.50;23.70;99.90;;;;;;5002498;28;9008;-59
2022/10/09 04:32:18;;;;;;;;;19.50;19.50;23.70;99.90;;;;;;5017787;28;9608;-59
2022/10/09 04:34:52;;;;;;;;;18.25;17.75;23.60;99.90;;;;;;5015805;28;8837;-59
2022/10/09 04:37:23;;;;;;;;;20.00;20.00;23.70;99.90;;;;;;5018023;28;10072;-60
2022/10/09 04:39:54;;;;;;;;;16.50;16.50;23.70;99.90;;;;;;5022784;28;8851;-61
2022/10/09 04:42:27;;;;;;;;;20.25;20.25;23.70;99.90;;;;;;5018975;28;8885;-59
2022/10/09 04:44:58;;;;;;;;;19.00;19.00;23.70;99.90;;;;;;5023499;28;8913;-59
2022/10/09 04:47:31;;;;;;;;;15.00;15.00;23.60;99.90;;;;;;5014708;28;8846;-59
2022/10/09 04:50:01;;;;;;;;;18.75;18.75;23.70;99.90;;;;;;5049138;28;8908;-59
2022/10/09 04:52:33;;;;;;;;;16.50;16.50;23.50;99.90;;;;;;5018928;28;8855;-59
2022/10/09 04:55:05;;;;;;;;;18.00;17.50;23.50;99.90;;;;;;5020017;28;8944;-59
2022/10/09 04:57:37;;;;;;;;;17.75;17.75;23.50;99.90;;;;;;5017905;28;9203;-60
2022/10/09 05:00:13;;;;;;;;;16.00;16.00;23.50;99.90;;;;;;5012689;28;8838;-59
2022/10/09 05:02:43;;;;;;;;;20.00;20.00;23.50;99.90;;;;;;5021049;28;8890;-61
2022/10/09 05:05:15;;;;;;;;;20.25;18.50;23.30;99.90;;;;;;5032951;28;8870;-60
2022/10/09 05:07:46;;;;;;;;;17.75;17.75;23.30;99.90;;;;;;5019577;28;8840;-59
2022/10/09 05:10:18;;;;;;;;;17.50;17.00;23.30;99.90;;;;;;5017604;28;9029;-60
2022/10/09 05:12:49;;;;;;;;;17.50;17.50;23.40;99.90;;;;;;5019491;28;8863;-60
2022/10/09 05:15:20;;;;;;;;;20.75;20.75;23.30;99.90;;;;;;5024277;28;8832;-60
2022/10/09 05:17:52;;;;;;;;;19.75;19.75;23.30;99.90;;;;;;5018886;28;8889;-59
2022/10/09 05:20:25;;;;;;;;;19.50;18.25;23.30;99.90;;;;;;5020397;28;8898;-59
2022/10/09 05:22:55;;;;;;;;;17.00;17.00;23.30;99.90;;;;;;5031915;28;8885;-59
2022/10/09 05:25:27;;;;;;;;;19.33;19.33;23.20;99.90;;;;;;5019756;28;8839;-59
2022/10/09 05:27:59;;;;;;;;;19.00;18.00;23.10;99.90;;;;;;5025415;28;8953;-61
2022/10/09 05:30:32;;;;;;;;;16.25;16.25;23.00;99.90;;;;;;5017610;28;8855;-60
2022/10/09 05:33:01;;;;;;;;;14.50;13.75;23.00;99.90;;;;;;5016519;28;8862;-59
2022/10/09 05:35:33;;;;;;;;;21.00;21.00;23.00;99.90;;;;;;5029648;28;8861;-60
2022/10/09 05:38:03;;;;;;;;;19.00;19.00;23.00;99.90;;;;;;5016376;28;8831;-60
2022/10/09 05:40:35;;;;;;;;;19.50;19.50;23.00;99.90;;;;;;5017531;28;8857;-60
2022/10/09 05:43:06;;;;;;;;;21.00;21.00;22.90;99.90;;;;;;5015250;28;8827;-60
2022/10/09 05:45:39;;;;;;;;;20.00;20.00;22.90;99.90;;;;;;5019235;28;8833;-60
2022/10/09 05:48:12;;;;;;;;;19.75;19.75;23.00;99.90;;;;;;5017410;28;8855;-60
2022/10/09 05:50:47;;;;;;;;;18.75;18.75;22.90;99.90;;;;;;5049396;28;8862;-60
2022/10/09 05:53:17;;;;;;;;;20.25;20.25;22.90;99.90;;;;;;5046714;28;8862;-60
2022/10/09 05:55:50;;;;;;;;;20.33;20.33;22.70;99.90;;;;;;5020875;28;8862;-60
2022/10/09 05:58:22;;;;;;;;;18.67;18.67;22.60;99.90;;;;;;5047470;28;9299;-60
2022/10/09 06:01:01;;;;;;;;;16.00;16.00;22.60;99.90;;;;;;5018277;28;8966;-60
2022/10/09 06:03:34;;;;;;;;;21.67;21.67;22.60;99.90;;;;;;5003145;28;9055;-59
2022/10/09 06:06:08;;;;;;;;;20.00;20.00;22.50;99.90;;;;;;5015580;28;8937;-60
2022/10/09 06:08:41;;;;;;;;;22.00;22.00;22.50;99.90;;;;;;5018884;28;9621;-60
2022/10/09 06:11:20;;;;;;;;;22.33;22.33;22.50;99.90;;;;;;5014183;28;8934;-61
2022/10/09 06:13:52;;;;;;;;;22.33;20.33;22.50;99.90;;;;;;5015443;28;8999;-62
2022/10/09 06:16:25;;;;;;;;;25.67;23.67;22.50;99.90;;;;;;5024091;28;10197;-60
2022/10/09 06:18:58;;;;;;;;;23.33;22.00;22.40;99.90;;;;;;5049606;28;8942;-61
2022/10/09 06:21:29;;;;;;;;;20.33;20.33;22.50;99.90;;;;;;5023273;28;8949;-60
2022/10/09 06:24:02;;;;;;;;;24.00;23.00;22.50;99.90;;;;;;5019096;28;9014;-59
2022/10/09 06:26:37;;;;;;;;;22.00;22.00;22.30;99.90;;;;;;5026241;28;9106;-59
2022/10/09 06:29:08;;;;;;;;;18.33;18.33;22.40;99.90;;;;;;5038030;28;8858;-59
2022/10/09 06:31:39;;;;;;;;;21.67;21.67;22.40;99.90;;;;;;5021611;28;9343;-60
2022/10/09 06:34:10;;;;;;;;;25.00;24.00;22.30;99.90;;;;;;5012241;28;8937;-60
2022/10/09 06:36:40;;;;;;;;;23.00;23.00;22.30;99.90;;;;;;5015471;28;9037;-62
2022/10/09 06:39:11;;;;;;;;;21.67;21.67;22.30;99.90;;;;;;5019346;28;8999;-60
2022/10/09 06:41:43;;;;;;;;;25.67;25.00;22.30;99.90;;;;;;5016647;28;9359;-60
2022/10/09 06:44:43;;;;;;;;;25.67;25.67;22.20;99.90;;;;;;5030116;28;9166;-59
2022/10/09 06:47:13;;;;;;;;;22.00;22.00;22.10;99.90;;;;;;5016124;28;9061;-60
2022/10/09 06:49:46;;;;;;;;;23.67;23.67;22.20;99.90;;;;;;5040230;28;9251;-60
2022/10/09 06:52:21;;;;;;;;;22.33;21.33;22.20;99.90;;;;;;5014201;28;9066;-60
2022/10/09 06:54:53;;;;;;;;;23.33;23.33;22.20;99.90;;;;;;5047417;28;9090;-60
2022/10/09 06:57:24;;;;;;;;;23.33;23.33;22.20;99.90;;;;;;5016045;28;9226;-60
2022/10/09 06:59:55;;;;;;;;;27.00;27.00;22.10;99.90;;;;;;5047040;28;9318;-60
2022/10/09 07:02:29;;;;;;;;;22.67;22.67;22.00;99.90;;;;;;5013501;28;9413;-62
2022/10/09 07:05:00;;;;;;;;;27.00;27.00;21.90;99.90;;;;;;5012716;28;9271;-60
2022/10/09 07:07:30;;;;;;;;;27.67;27.67;21.90;99.90;;;;;;5012698;28;9256;-61
2022/10/09 07:10:04;;;;;;;;;24.67;24.67;21.90;99.90;;;;;;5013472;28;9381;-59
2022/10/09 07:12:37;;;;;;;;;22.33;22.33;22.00;99.90;;;;;;5008569;28;9331;-58
2022/10/09 07:15:24;;;;;;;;;25.33;24.67;22.00;99.90;;;;;;5018081;28;9473;-59
2022/10/09 07:17:55;;;;;;;;;23.67;23.67;21.90;99.90;;;;;;5004319;28;9329;-63
2022/10/09 07:20:28;;;;;;;;;24.67;24.67;22.00;99.90;;;;;;5004394;28;9429;-62
2022/10/09 07:23:00;;;;;;;;;23.67;23.67;21.90;99.90;;;;;;5011114;28;9552;-60
2022/10/09 07:25:35;;;;;;;;;23.33;23.33;21.80;99.90;;;;;;5003404;28;9484;-59
2022/10/09 07:28:07;;;;;;;;;21.33;21.33;21.80;99.90;;;;;;5003738;28;9335;-60
2022/10/09 07:30:39;;;;;;;;;24.33;24.33;21.90;99.90;;;;;;5011904;28;9556;-59
2022/10/09 07:33:12;;;;;;;;;22.33;22.33;21.80;99.90;;;;;;5023250;28;9422;-60
2022/10/09 07:35:51;;;;;;;;;25.33;25.33;21.80;99.90;;;;;;5029983;28;9544;-60
2022/10/09 07:38:24;;;;;;;;;26.33;26.33;21.80;99.90;;;;;;5007605;28;9699;-61
2022/10/09 07:41:02;;;;;;;;;24.67;24.67;21.90;99.90;;;;;;5026038;28;10501;-60
2022/10/09 07:43:36;;;;;;;;;24.33;24.33;21.90;99.90;;;;;;5012281;28;9391;-60
2022/10/09 07:46:16;;;;;;;;;24.00;24.00;21.80;99.90;;;;;;5005106;28;9489;-57
2022/10/09 07:48:47;;;;;;;;;27.00;27.00;21.80;99.90;;;;;;5013441;28;9492;-59
2022/10/09 07:51:30;;;;;;;;;25.00;25.00;21.80;99.90;;;;;;5010280;28;9612;-59
2022/10/09 07:54:03;;;;;;;;;28.33;28.33;21.70;99.90;;;;;;5000891;28;9509;-59
2022/10/09 07:56:39;;;;;;;;;28.00;28.00;21.80;99.90;;;;;;5005547;28;9589;-59
2022/10/09 07:59:14;;;;;;;;;22.67;22.67;21.80;99.90;;;;;;5009942;28;9816;-60
2022/10/09 08:01:44;;;;;;;;;24.25;24.25;21.80;99.90;;;;;;5008037;28;9530;-60
2022/10/09 08:04:15;;;;;;;;;26.00;26.00;21.80;99.90;;;;;;5011241;28;9786;-60
2022/10/09 08:06:45;;;;;;;;;20.67;20.67;21.70;99.90;;;;;;5004529;28;9765;-59
2022/10/09 08:09:17;;;;;;;;;23.50;23.50;21.70;99.90;;;;;;5036435;28;9810;-59
2022/10/09 08:11:48;;;;;;;;;25.67;25.67;21.60;99.90;;;;;;5038864;28;9628;-60
2022/10/09 08:14:18;;;;;;;;;25.25;25.25;21.70;99.90;;;;;;5015120;28;9639;-61
2022/10/09 08:16:52;;;;;;;;;25.33;25.33;21.70;99.90;;;;;;5008188;28;9707;-60
2022/10/09 08:19:25;;;;;;;;;28.67;27.33;21.70;99.90;;;;;;5010623;28;9504;-60
2022/10/09 08:22:01;;;;;;;;;21.67;21.67;21.60;99.90;;;;;;5009080;28;9567;-60
2022/10/09 08:24:34;;;;;;;;;27.50;27.50;21.50;99.90;;;;;;5037645;28;9608;-60
2022/10/09 08:27:09;;;;;;;;;26.67;26.67;21.40;99.90;;;;;;5041038;28;9747;-60
2022/10/09 08:29:44;;;;;;;;;24.33;24.33;21.40;99.90;;;;;;5003790;28;9561;-60
2022/10/09 08:32:15;;;;;;;;;23.67;23.67;21.50;99.90;;;;;;5009238;28;9470;-60
2022/10/09 08:34:47;;;;;;;;;24.33;24.33;21.50;99.90;;;;;;5015076;28;9546;-60
2022/10/09 08:37:19;;;;;;;;;26.00;26.00;21.30;99.90;;;;;;5033487;28;9548;-60
2022/10/09 08:39:49;;;;;;;;;24.00;24.00;21.30;99.90;;;;;;5021225;28;9523;-60
2022/10/09 08:42:40;;;;;;;;;23.33;23.33;21.30;99.90;;;;;;5006820;28;9598;-59
2022/10/09 08:45:17;;;;;;;;;25.50;25.50;21.30;99.90;;;;;;5008624;28;9476;-60
2022/10/09 08:47:55;;;;;;;;;25.67;25.67;21.30;99.90;;;;;;5008151;28;9725;-60
2022/10/09 08:50:36;;;;;;;;;24.00;24.00;21.10;99.90;;;;;;5011033;28;9672;-60
2022/10/09 08:53:45;;;;;;;;;31.50;30.50;21.10;99.90;;;;;;5013914;28;9509;-60
2022/10/09 08:56:26;;;;;;;;;25.67;25.67;21.20;99.90;;;;;;5045706;28;9767;-60
2022/10/09 08:58:57;;;;;;;;;29.50;29.50;21.10;99.90;;;;;;5049865;28;9649;-60
2022/10/09 09:01:33;;;;;;;;;27.00;27.00;21.00;99.90;;;;;;5007829;28;10458;-60
2022/10/09 09:04:23;;;;;;;;;26.33;24.67;21.00;99.90;;;;;;5015211;28;9786;-60
2022/10/09 09:07:01;;;;;;;;;28.50;28.50;21.10;99.90;;;;;;5012081;28;9540;-60
2022/10/09 09:09:50;;;;;;;;;25.33;25.33;21.10;99.90;;;;;;5005808;28;9817;-60
2022/10/09 09:12:34;;;;;;;;;27.00;27.00;21.10;99.90;;;;;;5025297;28;9413;-60
2022/10/09 09:15:28;;;;;;;;;26.33;26.33;21.10;99.90;;;;;;5013330;28;9496;-60
2022/10/09 09:18:23;;;;;;;;;25.67;25.67;21.20;99.90;;;;;;5012187;28;9712;-59
2022/10/09 09:20:55;;;;;;;;;22.00;22.00;21.20;99.90;;;;;;5011543;28;9551;-60
2022/10/09 09:23:49;;;;;;;;;25.33;25.33;21.50;99.90;;;;;;5012627;28;9374;-60
2022/10/09 09:26:24;;;;;;;;;25.33;25.33;21.30;99.90;;;;;;5010311;28;9383;-61
2022/10/09 09:29:02;;;;;;;;;26.00;26.00;21.20;99.90;;;;;;5023179;28;9596;-61
2022/10/09 09:31:37;;;;;;;;;28.67;27.33;21.10;99.90;;;;;;5027474;28;9609;-64
2022/10/09 09:34:27;;;;;;;;;25.33;25.33;21.10;99.90;;;;;;5012030;28;9622;-60
2022/10/09 09:36:58;;;;;;;;;21.00;21.00;21.10;99.90;;;;;;5014486;28;9488;-60
2022/10/09 09:39:34;;;;;;;;;27.33;27.33;21.10;99.90;;;;;;5010016;28;9985;-60
2022/10/09 09:42:23;;;;;;;;;29.00;27.00;21.20;99.90;;;;;;5020137;28;9309;-61
2022/10/09 09:45:02;;;;;;;;;26.00;26.00;21.20;99.90;;;;;;5016247;28;9542;-60
2022/10/09 09:47:49;;;;;;;;;23.00;23.00;21.20;99.90;;;;;;5013618;28;10654;-59
2022/10/09 09:50:41;;;;;;;;;28.00;28.00;21.30;99.90;;;;;;5014436;28;9276;-60
2022/10/09 09:53:28;;;;;;;;;25.33;25.33;21.20;99.90;;;;;;5008876;28;9565;-60
2022/10/09 09:55:59;;;;;;;;;23.00;23.00;21.10;99.90;;;;;;5009356;28;9463;-60
2022/10/09 09:58:43;;;;;;;;;26.67;26.67;21.20;99.90;;;;;;5021231;28;9541;-60
2022/10/09 10:01:25;;;;;;;;;25.33;25.33;20.90;99.90;;;;;;5039261;28;9578;-60
2022/10/09 10:03:58;;;;;;;;;24.67;24.67;21.10;99.90;;;;;;5028879;28;9459;-60
2022/10/09 10:06:34;;;;;;;;;21.25;21.25;21.20;99.90;;;;;;5013576;28;9639;-60
2022/10/09 10:09:12;;;;;;;;;25.00;25.00;21.20;99.90;;;;;;5016099;28;9643;-61
2022/10/09 10:12:00;;;;;;;;;28.00;28.00;21.10;99.90;;;;;;4999078;28;9708;-60
2022/10/09 10:14:32;;;;;;;;;29.50;29.50;21.10;99.90;;;;;;5012228;28;9810;-60
2022/10/09 10:17:03;;;;;;;;;27.33;27.33;20.90;99.90;;;;;;5014164;28;9700;-60
2022/10/09 10:19:37;;;;;;;;;27.75;27.75;21.00;99.90;;;;;;5008891;28;10337;-61
2022/10/09 10:22:23;;;;;;;;;28.00;28.00;21.00;99.90;;;;;;5016325;28;9877;-61
2022/10/09 10:25:01;;;;;;;;;26.75;26.75;21.10;99.90;;;;;;5015580;28;10268;-60
2022/10/09 10:27:40;;;;;;;;;25.33;25.33;21.10;99.90;;;;;;5011314;28;10592;-60
2022/10/09 10:30:15;;;;;;;;;25.00;25.00;21.10;99.90;;;;;;5012738;28;9557;-60
2022/10/09 10:33:05;;;;;;;;;25.25;25.25;21.10;99.90;;;;;;5014181;28;9604;-60
2022/10/09 10:35:41;;;;;;;;;33.00;32.00;21.10;99.90;;;;;;5017329;28;9594;-59
2022/10/09 10:38:16;;;;;;;;;26.00;26.00;21.10;99.90;;;;;;5029862;28;9852;-59
2022/10/09 10:41:16;;;;;;;;;27.67;27.67;21.10;99.90;;;;;;5026178;28;10405;-60
2022/10/09 10:43:55;;;;;;;;;26.00;26.00;21.20;99.90;;;;;;5028907;28;9534;-60
2022/10/09 10:46:37;;;;;;;;;25.33;25.33;20.90;99.90;;;;;;5027721;28;9704;-60
2022/10/09 10:49:12;;;;;;;;;24.00;24.00;21.10;99.90;;;;;;5006271;28;9566;-60
2022/10/09 10:52:10;;;;;;;;;25.67;25.67;21.10;99.90;;;;;;5015054;28;10282;-60
2022/10/09 10:55:13;;;;;;;;;24.33;24.33;21.00;99.90;;;;;;5016962;28;9584;-61
2022/10/09 10:58:07;;;;;;;;;27.75;27.75;21.00;99.90;;;;;;5022273;28;9602;-60
2022/10/09 11:00:49;;;;;;;;;27.33;27.33;20.90;99.90;;;;;;5021171;28;10350;-64
2022/10/09 11:03:33;;;;;;;;;24.33;24.33;20.90;99.90;;;;;;5018174;28;10340;-61
2022/10/09 11:06:26;;;;;;;;;26.00;26.00;20.80;99.90;;;;;;5020222;28;9545;-60
2022/10/09 11:08:56;;;;;;;;;26.75;26.75;20.80;99.90;;;;;;5053743;28;10671;-61
2022/10/09 11:12:04;;;;;;;;;24.33;24.33;20.80;99.90;;;;;;5047456;28;9808;-63
2022/10/09 11:15:01;;;;;;;;;23.00;23.00;20.80;99.90;;;;;;5015067;28;9606;-60
2022/10/09 11:17:55;;;;;;;;;27.50;27.00;20.60;99.90;;;;;;5032806;28;9531;-60
2022/10/09 11:21:03;;;;;;;;;26.25;26.25;20.70;99.90;;;;;;5011837;28;9956;-60
2022/10/09 11:24:16;;;;;;;;;27.00;27.00;20.70;99.90;;;;;;5019085;28;9715;-60
2022/10/09 11:27:27;;;;;;;;;25.00;25.00;20.70;99.90;;;;;;5028270;28;9543;-60
2022/10/09 11:30:27;;;;;;;;;25.00;25.00;20.70;99.90;;;;;;5051490;28;9519;-60
2022/10/09 11:33:26;;;;;;;;;24.50;24.50;20.70;99.90;;;;;;5019144;28;9696;-61
2022/10/09 11:36:35;;;;;;;;;25.67;25.67;20.60;99.90;;;;;;5016965;28;9697;-61
2022/10/09 11:39:22;;;;;;;;;24.75;24.75;20.60;99.90;;;;;;5015457;28;9637;-61
2022/10/09 11:41:56;;;;;;;;;26.50;26.50;20.50;99.90;;;;;;5028769;28;9817;-61
2022/10/09 11:45:02;;;;;;;;;30.50;30.25;20.50;99.90;;;;;;5043653;28;9663;-64
2022/10/09 11:47:51;;;;;;;;;23.75;23.75;20.40;99.90;;;;;;5015687;28;9953;-61
2022/10/09 11:50:35;;;;;;;;;24.75;24.75;20.50;99.90;;;;;;5038691;28;9795;-61
2022/10/09 11:53:09;;;;;;;;;27.00;27.00;20.30;99.90;;;;;;5028967;28;9823;-60
2022/10/09 11:55:42;;;;;;;;;24.67;24.67;20.30;99.90;;;;;;5033922;28;10738;-61
2022/10/09 11:58:17;;;;;;;;;21.00;20.00;20.50;99.90;;;;;;5015000;28;9608;-64
2022/10/09 12:00:52;;;;;;;;;23.75;23.25;20.30;99.90;;;;;;5050214;28;9918;-61
2022/10/09 12:03:36;;;;;;;;;27.50;27.50;20.10;99.90;;;;;;5011776;28;9789;-60
2022/10/09 12:06:14;;;;;;;;;25.00;25.00;19.90;99.90;;;;;;5019528;28;9698;-61
2022/10/09 12:09:07;;;;;;;;;24.75;24.75;20.00;99.90;;;;;;5014578;28;10596;-61
2022/10/09 12:12:15;;;;;;;;;20.50;20.50;19.90;99.90;;;;;;5016501;28;10665;-61
2022/10/09 12:14:51;;;;;;;;;23.33;23.33;20.00;99.90;;;;;;5012142;28;9610;-61
2022/10/09 12:17:24;;;;;;;;;22.25;21.50;20.10;99.90;;;;;;5046651;28;9629;-62
2022/10/09 12:20:15;;;;;;;;;23.00;22.75;19.90;99.90;;;;;;5012708;28;9753;-62
2022/10/09 12:22:54;;;;;;;;;25.00;25.00;19.90;99.90;;;;;;5020298;28;9727;-60
2022/10/09 12:25:50;;;;;;;;;23.00;23.00;19.70;99.90;;;;;;5016339;28;9949;-61
2022/10/09 12:28:26;;;;;;;;;22.25;22.25;19.70;99.90;;;;;;5023665;28;9760;-61
2022/10/09 12:31:00;;;;;;;;;23.00;23.00;19.90;99.90;;;;;;5012861;28;9997;-61
2022/10/09 12:33:43;;;;;;;;;26.25;26.25;19.90;99.90;;;;;;5016957;28;9795;-59
2022/10/09 12:36:21;;;;;;;;;29.00;29.00;19.70;99.90;;;;;;5012380;28;9868;-60
2022/10/09 12:38:51;;;;;;;;;22.25;22.25;19.70;99.90;;;;;;5027312;28;10076;-60
2022/10/09 12:41:26;;;;;;;;;24.50;24.50;19.50;99.90;;;;;;5021140;28;9917;-60
2022/10/09 12:44:02;;;;;;;;;25.25;25.25;19.50;99.90;;;;;;5021274;28;10102;-60
2022/10/09 12:46:38;;;;;;;;;22.75;22.75;19.30;99.90;;;;;;5014151;28;10931;-60
2022/10/09 12:49:25;;;;;;;;;22.75;22.75;19.30;99.90;;;;;;5010816;28;9951;-60
2022/10/09 12:51:58;;;;;;;;;26.25;26.25;19.30;99.90;;;;;;5010976;28;10851;-61
2022/10/09 12:54:31;;;;;;;;;29.25;29.25;19.30;99.90;;;;;;5015302;28;9800;-60
2022/10/09 12:57:01;;;;;;;;;29.00;29.00;19.30;99.90;;;;;;5009693;28;10114;-61
2022/10/09 12:59:47;;;;;;;;;24.25;24.25;19.40;99.90;;;;;;5012573;28;10879;-60
2022/10/09 13:02:21;;;;;;;;;24.25;24.25;19.40;99.90;;;;;;5009644;28;9972;-59
2022/10/09 13:05:01;;;;;;;;;24.75;24.75;19.40;99.90;;;;;;5015614;28;11164;-60
2022/10/09 13:07:36;;;;;;;;;29.00;29.00;19.50;99.90;;;;;;5022974;28;10685;-61
2022/10/09 13:10:20;;;;;;;;;28.75;28.75;19.50;99.90;;;;;;5011959;28;9895;-60
2022/10/09 13:12:56;;;;;;;;;32.00;31.50;19.50;99.90;;;;;;5017785;28;10158;-59
2022/10/09 13:15:37;;;;;;;;;25.25;25.25;19.60;99.90;;;;;;5026112;28;10086;-59
2022/10/09 13:18:23;;;;;;;;;22.50;22.50;19.60;99.90;;;;;;5008931;28;10269;-59
2022/10/09 13:21:01;;;;;;;;;24.25;24.25;19.60;99.90;;;;;;5009132;28;9945;-60
2022/10/09 13:23:35;;;;;;;;;24.75;23.50;19.70;99.90;;;;;;5005941;28;10079;-60
2022/10/09 13:26:06;;;;;;;;;24.00;24.00;19.60;99.90;;;;;;5013134;28;10080;-59
2022/10/09 13:28:45;;;;;;;;;30.25;28.50;19.60;99.90;;;;;;5013491;28;10261;-60
2022/10/09 13:31:19;;;;;;;;;22.00;22.00;19.60;99.90;;;;;;5041556;28;10013;-60